Aérodrome :
LOGIN :

S'inscrire | Disclaimer

   EN    FR    IT 

 










Légende :    VFR   VFR Marginal   IFR   IFR Intensif   IFR Très Intensif
Visi : 
Plafond : 
>= 8 km
>= 3000ft
5 à 8 km
1000 à 3000 ft
1500m à 5 km
500 à 1000 ft
800 à 1500m
200 à 500 ft
< 800m
< 200 ft
Symboles :   Orages  Brouillard  Fortes neiges  Fortes précipitations  Vent > 20 kt
SIGMETs :   Divers  Orages  Givrage  Turbulence  Onde Orograph.  Cendres Volcan.







- Altitude de l'aérodrome : 220 ft
- Code IATA : CWL
- Voir les cartes d'approche


EGFF - Cardiff Rhoose

DERNIER METAR :
  • 180420Z AUTO 27010KT 9999 BKN014 BKN031 OVC039 17/14 Q1020 RESHRA

METARs EXPIRÉS :
  • 180350Z 27011KT 8000 SHRA BKN013 BKN018 17/15 Q1020
  • 180320Z AUTO 27011KT 9999 BKN013 OVC035 17/15 Q1020
  • 180250Z 27011KT 9999 FEW009 BKN012 BKN029 16/15 Q1020 RESHRA
  • 180220Z 28011KT 4000 SHRA FEW006 BKN010 BKN017 16/15 Q1020
  • 180150Z AUTO 27012KT 9999 -RA BKN008 BKN026 OVC031 17/16 Q1020

TAF TAF EGFF
Valide du 18 à 00h jusqu'au 19 à 00h UTC


172255Z 1800/1824 25012KT 9999 FEW012 SCT018
TEMPO 1800/1811 6000 -RADZ BKN012
PROB30
TEMPO 1800/1808 4000 RADZ BR BKN009
BECMG 1816/1819 BKN012
TEMPO 1818/1824 5000 -RADZ BR BKN008
ATIS : +44 1446 729 319
Pas de NOTAMs connus pour ce terrain.
1 SIGMET publié pour la FIR London (EGTT) :
 
Onde orographique forte
EGTT SIGMET 01 VALID 180330/180730 EGRR
EGTT LONDON FIR SEV MTW FCST WI N5500 W00530 - N5500 E00000 - N5300 W00130 - N5300 W00530 - N5500 W00530 FL040/250 STNR NC=



MET'MAP, la Météo Aéronautique d'un coup d'oeil ! - Copyright ORBIFLY Décembre 2007 - Disclaimer

ORBIFLY MET'MAP TEAM :

Programmation & Développement : Alexandra Zaïnal
Conception & Développement : Baudouin d'Aumeries
Co-Programmation & Développement : Marc-Olivier Méhu
Soutien technique & logistique : Manuel Goepfert

Contact : metmap@orbifly.com




SOURCES & CREDITS :

   NOAA